Time;durP1;ratioP1;P1;durP2;ratioP2;P2;SDS_P1;SDS_P2;PMS_P1;PMS_P2;Temp;Humidity;BMP_temperature;BMP_pressure;BME280_temperature;BME280_humidity;BME280_pressure;Samples;Min_cycle;Max_cycle;Signal;HPM_P1;HPM_P2
2023/08/03 03:53:51;;;;;;;3.53;2.10;;;;;;;17.59;100.00;99369.91;6267230;27;20085;-88
2023/08/03 03:56:55;;;;;;;4.87;2.20;;;;;;;17.72;100.00;99373.34;5381748;33;32549;-89
2023/08/03 03:59:58;;;;;;;2.62;2.25;;;;;;;17.86;100.00;99361.88;5383926;33;34202;-85
2023/08/03 04:03:01;;;;;;;2.30;2.10;;;;;;;18.04;100.00;99360.75;5369874;33;33876;-85
2023/08/03 04:06:04;;;;;;;2.70;2.25;;;;;;;18.20;100.00;99369.16;5365400;33;34561;-85
2023/08/03 04:09:07;;;;;;;4.07;2.22;;;;;;;18.28;100.00;99371.41;5365250;33;33900;-84
2023/08/03 04:12:11;;;;;;;2.35;2.00;;;;;;;18.28;100.00;99363.25;5365393;33;34751;-84
2023/08/03 04:15:14;;;;;;;3.47;2.28;;;;;;;18.40;100.00;99357.66;5377153;33;33938;-84
2023/08/03 04:18:17;;;;;;;3.50;2.15;;;;;;;18.53;100.00;99365.47;5377347;33;35517;-84
2023/08/03 04:21:19;;;;;;;3.28;2.17;;;;;;;18.55;100.00;99364.16;5377563;33;33799;-84
2023/08/03 04:24:22;;;;;;;3.08;2.08;;;;;;;18.55;100.00;99364.16;5377662;33;33546;-83
2023/08/03 04:27:26;;;;;;;2.28;2.05;;;;;;;18.52;100.00;99370.09;5379512;33;33497;-84
2023/08/03 04:30:30;;;;;;;4.20;2.30;;;;;;;18.51;100.00;99367.63;5380780;33;34516;-84
2023/08/03 04:33:33;;;;;;;4.20;2.42;;;;;;;18.54;100.00;99369.84;5380580;33;33551;-85
2023/08/03 04:36:36;;;;;;;4.85;2.62;;;;;;;18.46;100.00;99357.50;5367249;33;33454;-85
2023/08/03 04:39:39;;;;;;;4.40;2.50;;;;;;;18.51;100.00;99354.81;5368028;33;34405;-84
2023/08/03 04:42:43;;;;;;;2.62;2.12;;;;;;;18.64;100.00;99353.59;5367419;33;33843;-85
2023/08/03 04:45:45;;;;;;;6.25;2.90;;;;;;;18.79;100.00;99345.63;5379111;33;33938;-84
2023/08/03 04:48:48;;;;;;;3.40;2.80;;;;;;;19.03;100.00;99351.56;5368878;33;33479;-84
2023/08/03 04:51:52;;;;;;;3.03;2.65;;;;;;;19.16;100.00;99349.50;5367740;33;34642;-84
2023/08/03 04:54:55;;;;;;;4.82;2.78;;;;;;;19.29;100.00;99348.25;5381250;33;33902;-84
2023/08/03 04:57:58;;;;;;;3.87;2.62;;;;;;;19.46;100.00;99360.69;5361548;33;33524;-87
2023/08/03 05:01:02;;;;;;;5.25;3.20;;;;;;;19.69;100.00;99348.59;5354087;33;33573;-84
2023/08/03 05:04:05;;;;;;;3.03;2.60;;;;;;;19.85;100.00;99352.22;5362527;33;33827;-87
2023/08/03 05:07:08;;;;;;;2.85;2.55;;;;;;;19.88;100.00;99359.91;5361994;33;33995;-85
2023/08/03 05:10:13;;;;;;;3.10;2.80;;;;;;;20.09;100.00;99362.75;5350597;33;33812;-84
2023/08/03 05:13:17;;;;;;;3.35;2.80;;;;;;;20.17;100.00;99376.72;5361996;33;34011;-85
2023/08/03 05:16:24;;;;;;;3.90;3.35;;;;;;;20.29;100.00;99378.44;5349981;33;33770;-86
2023/08/03 05:19:29;;;;;;;3.35;2.92;;;;;;;20.46;100.00;99370.03;5361983;33;33883;-84
2023/08/03 05:22:32;;;;;;;3.55;2.75;;;;;;;20.47;100.00;99358.81;5361876;33;33468;-84
2023/08/03 05:25:35;;;;;;;3.10;2.80;;;;;;;20.56;100.00;99354.53;5349700;33;35132;-85
2023/08/03 05:28:37;;;;;;;3.37;2.97;;;;;;;20.73;100.00;99358.94;5361452;33;34035;-84
2023/08/03 05:31:41;;;;;;;6.12;3.10;;;;;;;20.71;100.00;99363.84;5362663;33;33893;-84
2023/08/03 05:34:44;;;;;;;4.12;3.30;;;;;;;20.80;100.00;99357.59;5342853;33;34558;-85
2023/08/03 05:37:47;;;;;;;4.87;3.37;;;;;;;20.86;100.00;99358.44;5354714;33;33338;-85
2023/08/03 05:40:49;;;;;;;4.18;3.12;;;;;;;21.09;100.00;99350.78;5362671;33;33997;-85
2023/08/03 05:43:53;;;;;;;4.05;3.25;;;;;;;21.29;100.00;99351.63;5361541;33;34623;-84
2023/08/03 05:46:56;;;;;;;6.35;3.10;;;;;;;21.37;100.00;99346.72;5362287;33;33794;-84
2023/08/03 05:50:12;;;;;;;6.32;3.20;;;;;;;21.55;100.00;99348.09;5348925;33;33561;-85
2023/08/03 05:53:16;;;;;;;6.32;3.03;;;;;;;21.66;100.00;99352.47;5374479;33;33747;-85
2023/08/03 05:56:24;;;;;;;3.72;2.87;;;;;;;21.67;100.00;99365.88;5388647;33;35295;-86
2023/08/03 05:59:26;;;;;;;5.82;3.28;;;;;;;21.81;100.00;99360.66;5378206;33;35439;-89
2023/08/03 06:02:33;;;;;;;5.28;3.10;;;;;;;21.90;100.00;99353.50;5348772;33;34237;-86
2023/08/03 06:05:43;;;;;;;4.53;3.03;;;;;;;21.96;100.00;99359.78;5362388;33;33482;-85
2023/08/03 06:08:50;;;;;;;3.70;2.83;;;;;;;22.03;100.00;99357.59;5362961;33;34942;-85
2023/08/03 06:11:53;;;;;;;5.70;3.30;;;;;;;22.15;100.00;99360.03;5364623;33;33944;-85
2023/08/03 06:14:56;;;;;;;3.83;3.08;;;;;;;22.27;100.00;99365.22;5361800;33;33590;-85
2023/08/03 06:18:04;;;;;;;5.10;3.28;;;;;;;22.34;100.00;99368.47;5359586;33;33939;-85
2023/08/03 06:21:07;;;;;;;3.95;3.00;;;;;;;22.36;100.00;99367.09;5361392;33;34459;-85
2023/08/03 06:24:10;;;;;;;4.60;2.70;;;;;;;22.42;100.00;99370.66;5348004;33;33316;-85
2023/08/03 06:27:13;;;;;;;3.15;2.80;;;;;;;22.52;100.00;99373.34;5360354;33;34291;-84
2023/08/03 06:30:17;;;;;;;4.57;2.90;;;;;;;22.72;100.00;99357.88;5360875;33;34971;-85
2023/08/03 06:33:22;;;;;;;5.18;2.90;;;;;;;22.82;100.00;99369.63;5360952;33;33912;-85
2023/08/03 06:36:27;;;;;;;5.78;3.12;;;;;;;23.07;100.00;99371.41;5347784;33;33967;-85
2023/08/03 06:39:30;;;;;;;4.15;2.75;;;;;;;23.17;100.00;99367.78;5361055;33;33531;-85
2023/08/03 06:42:35;;;;;;;3.20;2.85;;;;;;;23.33;100.00;99365.72;5348124;33;33764;-85
2023/08/03 06:45:40;;;;;;;4.70;3.05;;;;;;;23.54;100.00;99366.38;5359835;33;34397;-85
2023/08/03 06:48:43;;;;;;;7.55;3.22;;;;;;;23.64;100.00;99368.22;5360721;33;34318;-85
2023/08/03 06:51:46;;;;;;;4.50;3.30;;;;;;;23.84;100.00;99365.31;5361749;33;33509;-85
2023/08/03 06:54:49;;;;;;;3.92;3.05;;;;;;;23.98;100.00;99376.41;5359921;33;34685;-85
2023/08/03 06:57:52;;;;;;;4.37;3.10;;;;;;;24.15;99.71;99371.28;5359672;33;35066;-85
2023/08/03 07:00:55;;;;;;;5.97;3.10;;;;;;;24.08;100.00;99383.75;5359727;33;33487;-85
2023/08/03 07:03:58;;;;;;;3.62;2.90;;;;;;;24.13;100.00;99384.53;5360607;33;34563;-85
2023/08/03 07:07:01;;;;;;;2.95;2.72;;;;;;;24.32;98.54;99381.81;5343651;33;33729;-85
2023/08/03 07:10:05;;;;;;;5.45;2.90;;;;;;;24.42;98.50;99389.13;5347363;33;33493;-85
2023/08/03 07:13:08;;;;;;;4.40;2.95;;;;;;;24.58;96.32;99392.56;5360739;33;34162;-85
2023/08/03 07:16:11;;;;;;;3.40;3.05;;;;;;;24.65;97.46;99399.31;5359424;33;33528;-85
2023/08/03 07:19:18;;;;;;;5.32;3.28;;;;;;;24.72;96.02;99401.72;5359690;33;34975;-85
2023/08/03 07:22:21;;;;;;;5.97;3.40;;;;;;;24.91;94.74;99396.22;5361135;33;34782;-85
2023/08/03 07:25:25;;;;;;;4.32;3.17;;;;;;;24.82;94.54;99400.78;5359047;33;34002;-85
2023/08/03 07:28:28;;;;;;;4.68;3.53;;;;;;;24.78;95.98;99413.50;5359953;33;33805;-85
2023/08/03 07:31:31;;;;;;;6.95;3.30;;;;;;;24.84;95.99;99420.56;5359525;33;34829;-85
2023/08/03 07:34:33;;;;;;;3.78;3.37;;;;;;;24.88;93.69;99411.41;5348421;33;33889;-85
2023/08/03 07:37:36;;;;;;;4.40;3.37;;;;;;;24.96;93.59;99420.13;5361762;33;33869;-85
2023/08/03 07:40:39;;;;;;;4.55;3.35;;;;;;;24.92;92.59;99422.63;5358046;33;34617;-85
2023/08/03 07:43:42;;;;;;;5.78;3.42;;;;;;;24.76;93.64;99418.47;5340221;33;33642;-85
2023/08/03 07:46:46;;;;;;;4.05;3.37;;;;;;;24.56;95.04;99420.34;5347558;33;33790;-85
2023/08/03 07:49:49;;;;;;;4.70;3.28;;;;;;;24.47;96.30;99429.56;5360474;33;34544;-85
2023/08/03 07:52:52;;;;;;;4.22;3.20;;;;;;;24.35;97.84;99439.00;5361137;33;33634;-85
2023/08/03 07:55:55;;;;;;;6.18;3.30;;;;;;;24.32;98.27;99444.28;5373411;33;34148;-87
2023/08/03 07:59:00;;;;;;;8.82;3.50;;;;;;;24.33;98.90;99448.66;5355040;33;35417;-89
2023/08/03 08:02:04;;;;;;;6.68;3.70;;;;;;;24.07;100.00;99448.91;5358510;33;34122;-90
2023/08/03 08:05:07;;;;;;;5.68;3.40;;;;;;;23.98;100.00;99450.66;5338875;33;33505;-86
2023/08/03 08:08:10;;;;;;;5.65;3.80;;;;;;;24.16;100.00;99455.44;5359332;33;34681;-86
2023/08/03 08:11:18;;;;;;;4.18;3.55;;;;;;;24.35;99.38;99457.44;5347845;33;33886;-85
2023/08/03 08:14:21;;;;;;;4.28;3.58;;;;;;;24.39;100.00;99451.06;5358305;33;34041;-85
2023/08/03 08:17:24;;;;;;;4.90;3.65;;;;;;;24.58;98.47;99453.09;5358775;33;34598;-85
2023/08/03 08:20:26;;;;;;;4.05;3.65;;;;;;;24.89;96.92;99462.63;5361131;33;34956;-85
2023/08/03 08:23:30;;;;;;;4.85;3.62;;;;;;;25.01;95.74;99466.87;5351177;33;35204;-85
2023/08/03 08:26:32;;;;;;;7.50;4.90;;;;;;;24.76;95.66;99466.09;5350218;33;33838;-86
2023/08/03 08:29:37;;;;;;;4.80;3.85;;;;;;;24.54;97.77;99472.12;5362457;33;33783;-85
2023/08/03 08:32:40;;;;;;;6.00;4.05;;;;;;;24.69;96.97;99481.31;5359159;33;33982;-86
2023/08/03 08:35:46;;;;;;;5.47;4.00;;;;;;;24.69;96.42;99490.41;5346696;33;33844;-86
2023/08/03 08:38:48;;;;;;;5.45;3.87;;;;;;;24.72;95.54;99491.75;5360565;33;33922;-85
2023/08/03 08:41:51;;;;;;;4.95;3.85;;;;;;;24.84;95.49;99500.41;5360124;33;34052;-85
2023/08/03 08:44:54;;;;;;;4.40;3.67;;;;;;;25.39;92.53;99500.81;5357103;33;34954;-85
2023/08/03 08:47:58;;;;;;;4.80;3.62;;;;;;;25.87;88.47;99497.09;5352704;33;33434;-85
2023/08/03 08:51:04;;;;;;;8.18;3.83;;;;;;;26.04;89.88;99489.06;5344904;33;33824;-85
2023/08/03 08:54:10;;;;;;;4.53;3.87;;;;;;;25.55;90.38;99493.94;5358228;33;34715;-85
2023/08/03 08:57:15;;;;;;;3.87;3.47;;;;;;;25.33;91.76;99493.72;5346793;33;34042;-85
2023/08/03 09:00:20;;;;;;;5.50;3.62;;;;;;;25.04;92.35;99499.34;5345508;33;34071;-85
2023/08/03 09:03:23;;;;;;;5.45;3.62;;;;;;;25.14;92.78;99493.72;5355662;33;34652;-85
2023/08/03 09:06:26;;;;;;;5.75;3.78;;;;;;;25.43;91.92;99501.84;5345584;33;33795;-85
2023/08/03 09:09:35;;;;;;;7.37;3.37;;;;;;;25.83;90.78;99502.38;5357507;33;34882;-86
2023/08/03 09:12:42;;;;;;;5.05;3.50;;;;;;;26.16;87.29;99497.69;5360901;33;34319;-85
2023/08/03 09:15:45;;;;;;;5.87;3.78;;;;;;;26.43;87.67;99502.44;5360478;33;34338;-85
2023/08/03 09:18:47;;;;;;;5.07;3.42;;;;;;;26.67;86.21;99509.75;5348361;33;34505;-85
2023/08/03 09:21:58;;;;;;;4.05;3.40;;;;;;;26.46;87.42;99507.34;5348402;33;33898;-85
2023/08/03 09:25:09;;;;;;;4.75;3.35;;;;;;;26.42;89.42;99508.28;5359583;33;33622;-85
2023/08/03 09:28:11;;;;;;;3.80;3.20;;;;;;;26.27;87.97;99508.53;5346449;33;34026;-85
2023/08/03 09:31:25;;;;;;;8.23;3.60;;;;;;;26.29;85.92;99511.81;5342206;33;33966;-85
2023/08/03 09:34:42;;;;;;;5.00;3.72;;;;;;;25.92;87.63;99513.56;5355293;33;34219;-89
2023/08/03 09:37:46;;;;;;;3.67;3.37;;;;;;;26.09;87.98;99505.53;5361204;33;33684;-85
2023/08/03 09:40:50;;;;;;;6.37;3.83;;;;;;;26.46;86.14;99510.09;5360003;33;33768;-85
2023/08/03 09:43:54;;;;;;;4.53;3.55;;;;;;;26.83;84.34;99521.31;5360492;33;33373;-85
2023/08/03 09:46:57;;;;;;;5.03;3.72;;;;;;;27.30;82.08;99522.84;5360489;33;34317;-85
2023/08/03 09:50:01;;;;;;;9.80;3.58;;;;;;;28.03;79.92;99523.63;5360275;33;33842;-85
2023/08/03 09:53:09;;;;;;;6.32;3.35;;;;;;;27.93;78.08;99526.66;5356589;33;34679;-85
2023/08/03 09:56:24;;;;;;;4.03;3.30;;;;;;;27.73;79.62;99527.94;5360890;33;33626;-85
2023/08/03 09:59:32;;;;;;;5.28;3.30;;;;;;;27.30;79.99;99530.31;5355882;33;33609;-85
2023/08/03 10:02:48;;;;;;;5.12;3.65;;;;;;;27.89;78.88;99525.66;5361427;33;33700;-85
2023/08/03 10:05:55;;;;;;;4.05;3.40;;;;;;;28.18;77.96;99530.75;5361369;33;33877;-85
2023/08/03 10:09:12;;;;;;;4.10;3.60;;;;;;;28.34;77.61;99531.16;5361204;33;33857;-85
2023/08/03 10:12:24;;;;;;;7.18;3.80;;;;;;;28.66;74.61;99541.13;5361211;33;34243;-85
2023/08/03 10:15:27;;;;;;;5.47;3.50;;;;;;;28.97;73.39;99539.47;5361329;33;34324;-85
2023/08/03 10:18:33;;;;;;;4.32;3.17;;;;;;;28.84;73.41;99533.72;5359918;33;33502;-85
2023/08/03 10:21:39;;;;;;;;;;;;;;;29.17;73.75;99533.34;5372076;33;34613;-85
2023/08/03 10:25:15;;;;;;;4.43;3.42;;;;;;;29.44;69.60;99532.25;5361370;33;33711;-85
2023/08/03 10:28:39;;;;;;;4.95;3.78;;;;;;;29.71;68.94;99525.59;5361639;33;34092;-88
2023/08/03 10:32:03;;;;;;;3.85;2.90;;;;;;;30.15;68.05;99526.38;5359852;33;33683;-85
2023/08/03 10:35:35;;;;;;;5.82;3.03;;;;;;;30.35;64.85;99524.09;5360130;33;34300;-85
2023/08/03 10:38:41;;;;;;;3.20;2.67;;;;;;;30.38;63.26;99523.44;5361181;33;33535;-85
2023/08/03 10:41:46;;;;;;;4.93;3.00;;;;;;;30.65;60.23;99525.78;5360660;33;33633;-85
2023/08/03 10:44:51;;;;;;;3.87;2.80;;;;;;;30.98;62.27;99524.34;5372090;33;33914;-85
2023/08/03 10:48:40;;;;;;;3.35;2.70;;;;;;;31.58;55.43;99521.22;5359809;33;33635;-85
2023/08/03 10:51:47;;;;;;;2.90;2.50;;;;;;;31.50;53.34;99522.09;5361191;33;33750;-85
2023/08/03 10:54:51;;;;;;;6.37;2.58;;;;;;;30.50;48.50;99524.34;5360836;33;34345;-85
2023/08/03 10:57:56;;;;;;;3.58;2.55;;;;;;;31.30;50.15;99523.69;5360759;33;33775;-85
2023/08/03 11:00:59;;;;;;;5.75;2.37;;;;;;;32.16;45.50;99526.13;5359878;33;34818;-85
2023/08/03 11:04:02;;;;;;;3.37;2.30;;;;;;;32.11;46.89;99526.34;5359776;33;34966;-85
2023/08/03 11:07:08;;;;;;;2.80;2.47;;;;;;;32.86;43.44;99521.41;5359726;33;33733;-85
2023/08/03 11:10:14;;;;;;;4.40;2.33;;;;;;;33.01;44.06;99527.47;5362356;33;34036;-88
2023/08/03 11:13:18;;;;;;;3.95;2.17;;;;;;;33.64;41.93;99527.87;5362719;33;34989;-89
2023/08/03 11:16:23;;;;;;;2.10;1.92;;;;;;;33.73;39.24;99528.53;5361906;33;34056;-90
2023/08/03 11:19:32;;;;;;;;;;;;;;;33.74;35.78;99538.53;5356812;33;33841;-85
2023/08/03 11:22:35;;;;;;;2.75;1.75;;;;;;;35.09;33.92;99531.41;5359403;33;34719;-84
2023/08/03 11:25:40;;;;;;;2.65;1.90;;;;;;;35.75;32.45;99543.72;5371148;33;33556;-84
2023/08/03 11:28:44;;;;;;;4.40;1.85;;;;;;;35.10;34.01;99544.22;5358485;33;33808;-85
2023/08/03 11:31:47;;;;;;;3.75;2.25;;;;;;;34.28;34.18;99542.88;5363546;33;35384;-85
2023/08/03 11:35:00;;;;;;;3.62;2.50;;;;;;;34.40;35.99;99556.78;5357141;33;33488;-84
2023/08/03 11:38:07;;;;;;;5.47;2.60;;;;;;;33.54;37.14;99568.25;5359099;33;33812;-85
2023/08/03 11:41:13;;;;;;;3.53;2.50;;;;;;;32.48;40.68;99581.03;5361941;33;33777;-84
2023/08/03 11:44:22;;;;;;;5.75;2.40;;;;;;;32.27;41.84;99574.69;5359073;33;33509;-84
2023/08/03 11:47:25;;;;;;;3.92;2.20;;;;;;;32.13;42.18;99577.75;5350848;33;33772;-84
2023/08/03 11:50:28;;;;;;;3.12;2.62;;;;;;;31.53;44.07;99582.66;5359468;33;33994;-85
2023/08/03 11:53:31;;;;;;;4.03;2.40;;;;;;;31.81;45.41;99573.75;5359462;33;34567;-85
2023/08/03 11:56:35;;;;;;;3.08;1.90;;;;;;;32.72;41.75;99576.69;5359000;33;34091;-85
2023/08/03 11:59:41;;;;;;;2.03;1.80;;;;;;;32.70;38.86;99587.34;5359490;33;34673;-85
2023/08/03 12:02:45;;;;;;;2.70;1.85;;;;;;;32.06;39.20;99588.66;5371597;33;33934;-85
2023/08/03 12:05:54;;;;;;;2.75;1.50;;;;;;;32.39;36.80;99585.06;5360589;33;34567;-85
2023/08/03 12:09:17;;;;;;;2.85;1.62;;;;;;;32.79;35.16;99584.47;5359296;33;33910;-85
2023/08/03 12:12:20;;;;;;;3.00;1.70;;;;;;;33.80;31.62;99581.78;5359138;33;33874;-84
2023/08/03 12:15:23;;;;;;;2.78;1.17;;;;;;;33.86;31.48;99583.16;5358692;33;33832;-85
2023/08/03 12:18:28;;;;;;;1.87;1.23;;;;;;;34.01;29.41;99589.97;5358728;33;33729;-85
2023/08/03 12:21:30;;;;;;;1.48;1.20;;;;;;;35.24;27.79;99594.12;5357783;33;33842;-85
2023/08/03 12:24:34;;;;;;;4.12;1.40;;;;;;;35.80;26.92;99593.81;5346789;33;34060;-85
2023/08/03 12:27:36;;;;;;;2.22;1.15;;;;;;;37.10;25.73;99595.19;5358648;33;34125;-84
2023/08/03 12:30:40;;;;;;;4.37;1.30;;;;;;;37.46;24.41;99588.13;5347066;33;34122;-85
2023/08/03 12:33:43;;;;;;;4.68;1.00;;;;;;;39.41;22.39;99587.13;5360081;33;35045;-85
2023/08/03 12:36:46;;;;;;;1.75;1.27;;;;;;;41.01;21.11;99586.91;5358381;33;33517;-85
2023/08/03 12:39:49;;;;;;;1.33;1.23;;;;;;;42.14;20.86;99594.78;5356723;33;33966;-86
2023/08/03 12:42:53;;;;;;;1.67;1.20;;;;;;;41.57;20.92;99594.94;5346025;33;34019;-89
2023/08/03 12:45:56;;;;;;;1.73;1.20;;;;;;;41.19;22.51;99603.88;5357625;33;34551;-89
2023/08/03 12:48:59;;;;;;;1.40;1.30;;;;;;;41.46;22.48;99607.06;5361581;33;34696;-89
2023/08/03 12:52:02;;;;;;;2.25;1.42;;;;;;;42.22;22.50;99618.19;5348542;33;33644;-86
2023/08/03 12:55:06;;;;;;;1.58;1.40;;;;;;;41.93;23.75;99611.84;5361358;33;33477;-86
2023/08/03 12:58:09;;;;;;;4.82;1.50;;;;;;;41.90;23.77;99608.59;5360145;33;33892;-85
2023/08/03 13:01:12;;;;;;;1.85;1.50;;;;;;;42.58;22.98;99621.63;5361413;33;34466;-86
2023/08/03 13:04:15;;;;;;;3.28;1.80;;;;;;;41.63;24.35;99619.56;5360248;33;33862;-85
2023/08/03 13:07:19;;;;;;;2.47;1.50;;;;;;;42.42;24.18;99616.47;5360102;33;33821;-85
2023/08/03 13:10:21;;;;;;;3.78;1.77;;;;;;;41.42;25.29;99625.22;5360497;33;33992;-85
2023/08/03 13:13:24;;;;;;;2.45;1.52;;;;;;;41.58;25.62;99625.63;5347601;33;35131;-85
2023/08/03 13:16:27;;;;;;;1.48;1.37;;;;;;;41.90;25.04;99619.91;5347661;33;34762;-86
2023/08/03 13:19:30;;;;;;;1.70;1.52;;;;;;;42.25;23.82;99621.00;5359743;33;33869;-85
2023/08/03 13:22:33;;;;;;;1.58;1.48;;;;;;;43.34;23.39;99602.88;5359681;33;34565;-85
2023/08/03 13:25:36;;;;;;;2.97;1.55;;;;;;;42.31;23.80;99598.75;5360215;33;33952;-85
2023/08/03 13:28:39;;;;;;;2.85;1.55;;;;;;;43.17;23.42;99604.63;5348026;33;34789;-85
2023/08/03 13:31:42;;;;;;;4.65;1.27;;;;;;;43.00;23.60;99602.72;5361179;33;33807;-84
2023/08/03 13:34:45;;;;;;;3.03;1.73;;;;;;;44.52;22.41;99609.19;5347600;33;34930;-85
2023/08/03 13:37:51;;;;;;;2.75;1.75;;;;;;;44.09;22.39;99613.41;5359897;33;34774;-85
2023/08/03 13:40:54;;;;;;;2.97;1.37;;;;;;;42.71;23.25;99608.62;5372111;33;33754;-85
2023/08/03 13:44:00;;;;;;;5.37;1.60;;;;;;;43.01;23.10;99610.03;5371495;33;33814;-85
2023/08/03 13:47:04;;;;;;;2.50;1.55;;;;;;;43.00;23.25;99616.91;5361025;33;33906;-85
2023/08/03 13:50:07;;;;;;;1.48;1.20;;;;;;;43.32;22.80;99627.19;5347373;33;33486;-85
2023/08/03 13:53:10;;;;;;;1.87;1.45;;;;;;;43.44;22.20;99630.31;5347776;33;33269;-86
2023/08/03 13:56:13;;;;;;;2.33;1.25;;;;;;;42.25;21.65;99629.47;5358184;33;33980;-86
2023/08/03 13:59:16;;;;;;;2.90;1.37;;;;;;;42.90;21.62;99620.63;5358794;33;35478;-84
2023/08/03 14:02:19;;;;;;;1.87;1.50;;;;;;;41.95;23.22;99618.69;5360917;33;34441;-83
2023/08/03 14:05:42;;;;;;;2.53;1.60;;;;;;;40.62;23.51;99626.38;5359642;33;34801;-85
2023/08/03 14:09:05;;;;;;;6.18;1.52;;;;;;;41.37;22.86;99617.19;5349970;33;33765;-86
2023/08/03 14:12:13;;;;;;;1.92;1.27;;;;;;;42.58;21.82;99608.28;5359980;33;33501;-86
2023/08/03 14:15:18;;;;;;;1.65;1.50;;;;;;;41.13;23.04;99613.97;5347577;33;33391;-85
2023/08/03 14:18:24;;;;;;;1.33;1.23;;;;;;;40.71;23.98;99617.53;5360488;33;34642;-86
2023/08/03 14:21:29;;;;;;;1.60;1.50;;;;;;;38.66;26.23;99621.03;5359300;33;33655;-89
2023/08/03 14:24:52;;;;;;;1.80;1.60;;;;;;;36.48;28.70;99621.28;5360697;33;34356;-86
2023/08/03 14:27:58;;;;;;;1.70;1.60;;;;;;;34.95;30.80;99629.75;5371588;33;33782;-86
2023/08/03 14:31:21;;;;;;;4.10;1.77;;;;;;;33.72;33.25;99627.41;5349846;33;33778;-85
2023/08/03 14:34:24;;;;;;;2.12;1.52;;;;;;;32.57;35.81;99619.16;5348148;33;33762;-85
2023/08/03 14:37:49;;;;;;;2.47;1.70;;;;;;;31.71;36.42;99636.22;5358036;33;33892;-85
2023/08/03 14:40:52;;;;;;;2.40;1.70;;;;;;;31.35;38.50;99642.31;5376711;33;34754;-85
2023/08/03 14:43:55;;;;;;;3.30;1.87;;;;;;;31.19;38.86;99642.03;5376367;33;36028;-85
2023/08/03 14:47:06;;;;;;;3.42;1.90;;;;;;;30.73;39.36;99624.16;5374292;33;35256;-85
2023/08/03 14:50:10;;;;;;;1.85;1.75;;;;;;;30.68;39.75;99629.88;5371599;33;34005;-85
2023/08/03 14:53:15;;;;;;;1.73;1.50;;;;;;;30.45;42.07;99618.16;5360665;33;34009;-85
2023/08/03 14:56:19;;;;;;;1.80;1.70;;;;;;;30.41;40.76;99620.78;5361055;33;34597;-85
2023/08/03 14:59:24;;;;;;;3.20;2.22;;;;;;;29.85;41.03;99622.56;5360991;33;34575;-85
2023/08/03 15:02:30;;;;;;;2.10;1.90;;;;;;;30.18;40.70;99616.53;5359987;33;34530;-85
2023/08/03 15:05:33;;;;;;;3.70;1.83;;;;;;;30.37;41.40;99624.56;5347670;33;33746;-85
2023/08/03 15:08:36;;;;;;;2.50;1.70;;;;;;;29.94;42.65;99619.81;5353830;33;167026;-85
2023/08/03 15:11:39;;;;;;;3.65;2.22;;;;;;;29.55;43.63;99627.87;5358794;33;33906;-85
2023/08/03 15:14:42;;;;;;;2.22;2.03;;;;;;;29.35;44.26;99632.06;5359408;33;33664;-85
2023/08/03 15:17:47;;;;;;;2.90;2.17;;;;;;;29.17;44.54;99629.56;5359969;33;34687;-85
2023/08/03 15:21:19;;;;;;;3.33;1.85;;;;;;;29.10;45.15;99630.00;5358997;33;33527;-85
2023/08/03 15:24:24;;;;;;;3.62;1.92;;;;;;;28.76;45.44;99634.22;5360755;33;33696;-89
2023/08/03 15:27:29;;;;;;;2.10;1.90;;;;;;;28.59;46.02;99632.16;5359389;33;34968;-85
2023/08/03 15:30:34;;;;;;;4.07;2.33;;;;;;;28.50;46.83;99645.16;5348344;33;33460;-85
2023/08/03 15:33:57;;;;;;;2.60;2.15;;;;;;;28.49;46.59;99649.06;5359478;33;35425;-85
2023/08/03 15:37:01;;;;;;;2.30;2.00;;;;;;;28.61;47.63;99648.47;5347550;33;34066;-85
2023/08/03 15:40:08;;;;;;;1.83;1.73;;;;;;;28.16;48.14;99651.19;5360524;33;33420;-85
2023/08/03 15:43:14;;;;;;;2.05;1.85;;;;;;;28.13;48.46;99644.34;5359504;33;33770;-85
2023/08/03 15:46:20;;;;;;;2.42;1.77;;;;;;;28.00;48.42;99643.25;5361113;33;33762;-85
2023/08/03 15:49:28;;;;;;;6.10;2.72;;;;;;;28.18;49.40;99649.75;5360005;33;34555;-85
